Time;durP1;ratioP1;P1;durP2;ratioP2;P2;SDS_P1;SDS_P2;PMS_P1;PMS_P2;Temp;Humidity;BMP_temperature;BMP_pressure;BME280_temperature;BME280_humidity;BME280_pressure;Samples;Min_cycle;Max_cycle;Signal;HPM_P1;HPM_P2
2022/08/24 00:00:06;;;;;;;4.30;2.40;;;20.10;83.80;;;;;;5065011;28;20066;-68
2022/08/24 00:02:47;;;;;;;3.45;2.85;;;20.10;83.90;;;;;;5072716;28;20025;-67
2022/08/24 00:05:13;;;;;;;4.20;2.72;;;20.10;83.90;;;;;;5067318;28;20029;-67
2022/08/24 00:07:39;;;;;;;3.45;2.58;;;20.10;84.00;;;;;;5058275;28;20069;-68
2022/08/24 00:10:06;;;;;;;4.40;2.60;;;20.10;84.00;;;;;;5064839;28;20025;-68
2022/08/24 00:12:32;;;;;;;6.80;2.85;;;20.10;84.00;;;;;;5058307;28;20456;-68
2022/08/24 00:14:57;;;;;;;7.32;3.17;;;20.10;84.10;;;;;;5062987;28;20024;-67
2022/08/24 00:17:24;;;;;;;7.50;3.80;;;20.00;84.10;;;;;;5061600;28;20255;-67
2022/08/24 00:19:50;;;;;;;5.43;3.72;;;20.00;84.80;;;;;;5067652;28;20067;-67
2022/08/24 00:22:16;;;;;;;8.32;3.53;;;20.00;84.10;;;;;;5059821;28;20108;-67
2022/08/24 00:24:41;;;;;;;6.43;3.58;;;20.00;84.10;;;;;;5060066;28;20108;-68
2022/08/24 00:27:07;;;;;;;5.47;3.70;;;20.00;84.10;;;;;;5063844;28;20355;-69
2022/08/24 00:29:34;;;;;;;5.25;3.08;;;20.00;84.10;;;;;;5059997;28;20021;-67
2022/08/24 00:31:59;;;;;;;8.00;3.20;;;20.00;84.20;;;;;;5061795;28;20045;-67
2022/08/24 00:34:26;;;;;;;5.07;3.58;;;20.00;84.20;;;;;;5062994;28;20048;-67
2022/08/24 00:36:52;;;;;;;4.50;2.92;;;20.00;84.20;;;;;;5057696;28;20037;-68
2022/08/24 00:39:18;;;;;;;8.45;3.30;;;20.00;84.20;;;;;;5059095;28;20461;-68
2022/08/24 00:41:47;;;;;;;5.72;3.30;;;20.00;84.30;;;;;;5059052;28;20074;-67
2022/08/24 00:44:14;;;;;;;4.00;3.15;;;20.00;84.30;;;;;;5054953;28;20380;-67
2022/08/24 00:46:58;;;;;;;5.85;3.35;;;20.00;85.10;;;;;;5061305;28;20052;-68
2022/08/24 00:49:39;;;;;;;3.40;3.10;;;20.00;84.40;;;;;;5055124;28;20043;-68
2022/08/24 00:52:15;;;;;;;5.63;3.25;;;20.00;84.40;;;;;;5061364;28;20094;-69
2022/08/24 00:54:48;;;;;;;5.30;2.88;;;19.90;84.40;;;;;;5063483;28;20051;-67
2022/08/24 00:57:17;;;;;;;4.35;2.80;;;19.90;84.40;;;;;;5055671;28;20497;-67
2022/08/24 00:59:49;;;;;;;4.13;2.63;;;19.90;84.50;;;;;;5062694;28;20047;-68
2022/08/24 01:02:22;;;;;;;6.32;2.95;;;19.90;84.50;;;;;;5059847;28;20309;-67
2022/08/24 01:05:00;;;;;;;5.30;3.05;;;19.90;84.50;;;;;;5059386;28;20025;-67
2022/08/24 01:07:28;;;;;;;8.48;2.78;;;19.90;84.50;;;;;;5064172;28;20048;-67
2022/08/24 01:09:57;;;;;;;8.38;3.22;;;19.90;84.50;;;;;;5062361;28;20020;-68
2022/08/24 01:12:25;;;;;;;6.47;2.78;;;19.90;84.60;;;;;;5054479;28;20017;-68
2022/08/24 01:14:51;;;;;;;4.28;2.80;;;19.90;84.60;;;;;;5062832;28;20115;-69
2022/08/24 01:20:03;;;;;;;6.05;3.00;;;19.90;84.60;;;;;;5061837;28;20086;-68
2022/08/24 01:22:57;;;;;;;6.32;2.65;;;19.90;84.60;;;;;;5058805;28;20016;-68
2022/08/24 01:25:25;;;;;;;5.63;2.45;;;19.90;84.70;;;;;;5058351;28;20115;-67
2022/08/24 01:27:54;;;;;;;4.35;2.90;;;19.90;84.70;;;;;;5051127;28;20362;-68
2022/08/24 01:30:20;;;;;;;10.32;3.15;;;19.90;84.80;;;;;;5058694;28;20021;-67
2022/08/24 01:32:59;;;;;;;5.60;2.85;;;19.80;84.70;;;;;;5052057;28;20033;-68
2022/08/24 01:35:26;;;;;;;6.68;2.60;;;19.90;84.80;;;;;;5057062;28;20047;-67
2022/08/24 01:37:54;;;;;;;2.80;2.45;;;19.80;84.70;;;;;;5064600;28;20059;-68
2022/08/24 01:40:20;;;;;;;4.57;2.33;;;19.80;84.80;;;;;;5058990;28;20017;-67
2022/08/24 01:42:51;;;;;;;3.53;2.35;;;19.80;84.70;;;;;;5063196;28;20040;-67
2022/08/24 01:45:19;;;;;;;3.15;2.53;;;19.80;84.80;;;;;;5061037;28;20037;-68
2022/08/24 01:47:45;;;;;;;4.03;2.70;;;19.80;84.80;;;;;;5062790;28;20051;-68
2022/08/24 01:50:10;;;;;;;3.72;2.88;;;19.80;84.80;;;;;;5053595;28;20478;-68
2022/08/24 01:52:40;;;;;;;6.78;2.95;;;19.80;84.80;;;;;;5059115;28;20510;-67
2022/08/24 01:55:12;;;;;;;7.47;3.10;;;19.80;84.80;;;;;;5058872;28;20086;-68
2022/08/24 01:57:38;;;;;;;4.47;3.00;;;19.80;84.80;;;;;;5065310;28;20070;-68
2022/08/24 02:00:07;;;;;;;3.22;2.63;;;19.80;84.90;;;;;;5061194;28;20416;-69
2022/08/24 02:02:33;;;;;;;2.57;2.07;;;19.80;84.90;;;;;;5058218;28;20027;-67
2022/08/24 02:04:58;;;;;;;4.88;2.33;;;19.80;85.00;;;;;;5058647;28;20104;-68
2022/08/24 02:07:25;;;;;;;3.08;2.33;;;19.80;84.90;;;;;;5058914;28;20087;-68
2022/08/24 02:09:51;;;;;;;5.43;2.90;;;19.70;84.90;;;;;;5058933;28;20021;-67
2022/08/24 02:12:18;;;;;;;11.60;3.33;;;19.70;84.90;;;;;;5062548;28;20035;-68
2022/08/24 02:14:43;;;;;;;2.63;2.30;;;19.70;84.90;;;;;;5060764;28;20085;-69
2022/08/24 02:17:10;;;;;;;3.33;2.30;;;19.70;84.90;;;;;;5059363;28;20812;-67
2022/08/24 02:19:36;;;;;;;8.77;2.97;;;19.70;84.90;;;;;;5058698;28;20025;-69
2022/08/24 02:22:02;;;;;;;4.75;2.35;;;19.70;85.00;;;;;;5057988;28;20040;-68
2022/08/24 02:24:28;;;;;;;5.32;3.03;;;19.70;84.90;;;;;;5061776;28;20020;-67
2022/08/24 02:26:55;;;;;;;4.90;2.50;;;19.70;85.00;;;;;;5056634;28;20083;-68
2022/08/24 02:29:21;;;;;;;5.63;2.63;;;19.70;85.00;;;;;;5055810;28;20473;-68
2022/08/24 02:31:47;;;;;;;3.47;2.28;;;19.70;85.00;;;;;;5053841;28;20032;-68
2022/08/24 02:34:12;;;;;;;5.75;2.50;;;19.70;85.00;;;;;;5057813;28;20013;-67
2022/08/24 02:36:39;;;;;;;3.70;2.70;;;19.70;85.00;;;;;;5057390;28;20378;-67
2022/08/24 02:39:06;;;;;;;4.95;2.70;;;19.70;85.00;;;;;;5057768;28;20033;-68
2022/08/24 02:41:32;;;;;;;5.60;2.83;;;19.70;85.10;;;;;;5057751;28;20028;-68
2022/08/24 02:43:58;;;;;;;6.60;3.13;;;19.70;85.10;;;;;;5059607;28;20028;-67
2022/08/24 02:46:26;;;;;;;3.78;2.88;;;19.60;85.00;;;;;;5062185;28;20040;-68
2022/08/24 02:48:52;;;;;;;4.20;2.92;;;19.70;85.00;;;;;;5071720;28;20017;-69
2022/08/24 02:51:29;;;;;;;3.75;2.92;;;19.60;85.00;;;;;;5056961;28;20040;-68
2022/08/24 02:53:56;;;;;;;5.57;3.13;;;19.60;85.00;;;;;;5057421;28;20116;-67
2022/08/24 02:56:21;;;;;;;5.25;3.30;;;19.60;85.00;;;;;;5057705;28;20033;-68
2022/08/24 02:58:47;;;;;;;3.92;2.95;;;19.60;85.00;;;;;;5056993;28;20350;-68
2022/08/24 03:01:14;;;;;;;5.68;3.00;;;19.60;85.00;;;;;;5060278;28;20039;-68
2022/08/24 03:03:40;;;;;;;7.25;3.17;;;19.60;85.00;;;;;;5058189;28;20051;-67
2022/08/24 03:06:07;;;;;;;3.53;2.60;;;19.60;85.00;;;;;;5052396;28;20268;-68
2022/08/24 03:08:34;;;;;;;3.83;2.70;;;19.60;85.00;;;;;;5064263;28;20025;-68
2022/08/24 03:10:59;;;;;;;4.03;2.80;;;19.60;85.00;;;;;;5057350;28;20033;-67
2022/08/24 03:13:27;;;;;;;3.78;2.60;;;19.60;85.00;;;;;;5062088;28;20501;-67
2022/08/24 03:15:56;;;;;;;5.03;3.03;;;19.60;85.00;;;;;;5056490;28;20044;-68
2022/08/24 03:18:24;;;;;;;6.28;2.70;;;19.60;85.00;;;;;;5064219;28;20413;-68
2022/08/24 03:20:50;;;;;;;4.18;2.97;;;19.60;85.00;;;;;;5057435;28;20273;-67
2022/08/24 03:23:16;;;;;;;3.70;2.88;;;19.60;85.10;;;;;;5061049;28;20028;-68
2022/08/24 03:25:42;;;;;;;3.13;2.78;;;19.60;85.10;;;;;;5054784;28;20221;-69
2022/08/24 03:28:07;;;;;;;7.03;3.08;;;19.50;85.00;;;;;;5056970;28;20025;-67
2022/08/24 03:30:33;;;;;;;5.95;3.22;;;19.50;85.00;;;;;;5057417;28;20108;-68
2022/08/24 03:32:59;;;;;;;4.15;2.75;;;19.50;85.10;;;;;;5056870;28;20029;-68
2022/08/24 03:35:25;;;;;;;6.75;2.90;;;19.50;85.00;;;;;;5057822;28;20040;-68
2022/08/24 03:37:50;;;;;;;3.65;2.83;;;19.50;85.00;;;;;;5055680;28;20028;-68
2022/08/24 03:40:19;;;;;;;3.28;2.97;;;19.60;85.10;;;;;;5057047;28;20378;-67
2022/08/24 03:42:44;;;;;;;3.30;2.92;;;19.50;85.00;;;;;;5056874;28;20025;-68
2022/08/24 03:45:10;;;;;;;4.70;2.95;;;19.50;85.70;;;;;;5055960;28;20032;-68
2022/08/24 03:47:36;;;;;;;4.90;2.80;;;19.50;85.00;;;;;;5052240;28;20151;-68
2022/08/24 03:50:04;;;;;;;5.50;2.65;;;19.50;85.10;;;;;;5057741;28;20041;-68
2022/08/24 03:52:29;;;;;;;2.30;2.10;;;19.50;85.00;;;;;;5056892;28;20123;-69
2022/08/24 03:54:55;;;;;;;3.53;2.60;;;19.50;85.00;;;;;;5056599;28;20124;-67
2022/08/24 03:57:21;;;;;;;6.40;2.42;;;19.50;85.00;;;;;;5055924;28;20036;-69
2022/08/24 03:59:48;;;;;;;5.40;2.90;;;19.50;85.00;;;;;;5059067;28;20025;-67
2022/08/24 04:02:13;;;;;;;7.43;2.63;;;19.50;85.10;;;;;;5060911;28;20440;-68
2022/08/24 04:04:39;;;;;;;4.03;2.60;;;19.50;85.00;;;;;;5061144;28;20016;-68
2022/08/24 04:07:05;;;;;;;4.22;2.63;;;19.50;85.10;;;;;;5062957;28;20583;-67
2022/08/24 04:09:30;;;;;;;6.90;2.33;;;19.50;85.00;;;;;;5060688;28;20111;-68
2022/08/24 04:11:56;;;;;;;4.43;3.10;;;19.50;85.10;;;;;;5062948;28;20150;-69
2022/08/24 04:14:21;;;;;;;4.90;3.00;;;19.50;85.00;;;;;;5057627;28;20031;-68
2022/08/24 04:16:47;;;;;;;3.67;2.78;;;19.50;85.00;;;;;;5059350;28;20021;-68
2022/08/24 04:19:13;;;;;;;5.47;3.00;;;19.50;85.00;;;;;;5059536;28;20036;-68
2022/08/24 04:21:39;;;;;;;6.00;3.13;;;19.50;85.00;;;;;;5060711;28;20020;-68
2022/08/24 04:24:07;;;;;;;9.45;3.13;;;19.40;85.00;;;;;;5060952;28;20020;-68
2022/08/24 04:26:35;;;;;;;4.55;2.70;;;19.40;85.00;;;;;;5060079;28;20111;-67
2022/08/24 04:29:01;;;;;;;4.18;2.63;;;19.40;85.00;;;;;;5058127;28;20490;-69
2022/08/24 04:31:29;;;;;;;9.52;2.97;;;19.50;85.00;;;;;;5060394;28;20021;-68
2022/08/24 04:33:54;;;;;;;3.25;2.90;;;19.40;85.00;;;;;;5060201;28;20031;-68
2022/08/24 04:36:21;;;;;;;5.70;2.65;;;19.40;85.00;;;;;;5062614;28;20036;-68
2022/08/24 04:38:48;;;;;;;4.07;2.88;;;19.50;85.00;;;;;;5055583;28;20012;-68
2022/08/24 04:41:15;;;;;;;4.60;2.92;;;19.40;84.90;;;;;;5061459;28;20068;-68
2022/08/24 04:43:44;;;;;;;5.53;3.10;;;19.40;84.90;;;;;;5058395;28;20078;-68
2022/08/24 04:46:14;;;;;;;3.35;2.90;;;19.40;84.90;;;;;;5058261;28;20136;-68
2022/08/24 04:48:43;;;;;;;7.82;2.95;;;19.40;84.90;;;;;;5066348;28;20515;-68
2022/08/24 04:51:13;;;;;;;7.97;3.00;;;19.40;84.90;;;;;;5059144;28;20033;-68
2022/08/24 04:53:39;;;;;;;;;;;19.40;84.90;;;;;;5058920;28;20079;-69
2022/08/24 04:56:12;;;;;;;3.10;2.75;;;19.40;84.90;;;;;;5061894;28;19912;-68
2022/08/24 04:58:38;;;;;;;4.28;3.00;;;19.40;84.90;;;;;;5063138;28;20623;-68
2022/08/24 05:01:08;;;;;;;5.10;3.15;;;19.40;84.90;;;;;;5059758;28;20044;-68
2022/08/24 05:03:34;;;;;;;6.18;2.70;;;19.40;84.90;;;;;;5060430;28;20051;-68
2022/08/24 05:06:00;;;;;;;3.92;2.90;;;19.40;84.90;;;;;;5061000;28;20029;-68
2022/08/24 05:08:25;;;;;;;4.38;2.80;;;19.40;84.90;;;;;;5055129;28;20067;-68
2022/08/24 05:10:51;;;;;;;4.45;2.92;;;19.40;85.00;;;;;;5062586;28;20021;-68
2022/08/24 05:13:17;;;;;;;4.13;2.63;;;19.40;84.90;;;;;;5055472;28;20037;-68
2022/08/24 05:15:46;;;;;;;11.77;3.60;;;19.40;84.90;;;;;;5060428;28;20033;-68
2022/08/24 05:18:13;;;;;;;4.10;3.17;;;19.40;84.90;;;;;;5059565;28;20020;-68
2022/08/24 05:20:40;;;;;;;10.07;3.55;;;19.40;84.90;;;;;;5065124;28;20025;-69
2022/08/24 05:23:06;;;;;;;5.97;2.88;;;19.40;84.90;;;;;;5056381;28;20029;-68
2022/08/24 05:25:32;;;;;;;8.57;2.72;;;19.40;84.80;;;;;;5058274;28;20104;-68
2022/08/24 05:27:57;;;;;;;5.20;3.15;;;19.40;84.80;;;;;;5062778;28;20048;-68
2022/08/24 05:30:23;;;;;;;3.00;2.70;;;19.40;84.70;;;;;;5062519;28;20039;-68
2022/08/24 05:32:49;;;;;;;4.30;2.90;;;19.40;84.70;;;;;;5060545;28;20158;-68
2022/08/24 05:35:15;;;;;;;5.57;2.70;;;19.40;84.50;;;;;;5056351;28;20090;-68
2022/08/24 05:37:42;;;;;;;6.72;3.22;;;19.50;84.50;;;;;;5061340;28;20111;-68
2022/08/24 05:40:10;;;;;;;7.47;3.03;;;19.50;84.40;;;;;;5062712;28;20052;-68
2022/08/24 05:42:36;;;;;;;3.63;2.83;;;19.50;84.40;;;;;;5061375;28;20043;-69
2022/08/24 05:45:03;;;;;;;4.88;3.38;;;19.50;84.30;;;;;;5056006;28;20106;-69
2022/08/24 05:47:29;;;;;;;6.43;3.45;;;19.50;84.20;;;;;;5053466;28;20017;-68
2022/08/24 05:49:54;;;;;;;4.55;3.00;;;19.60;84.30;;;;;;5057210;28;20160;-69
2022/08/24 05:52:21;;;;;;;3.70;3.05;;;19.60;84.30;;;;;;5058630;28;20537;-68
2022/08/24 05:54:52;;;;;;;6.72;3.00;;;19.60;84.30;;;;;;5059460;28;20059;-68
2022/08/24 05:57:23;;;;;;;5.45;3.15;;;19.60;84.20;;;;;;5057820;28;20025;-68
2022/08/24 05:59:49;;;;;;;9.45;3.55;;;19.70;84.20;;;;;;5055639;28;20033;-68
2022/08/24 06:02:16;;;;;;;6.75;3.47;;;19.70;84.20;;;;;;5058057;28;20017;-68
2022/08/24 06:04:43;;;;;;;7.53;3.15;;;19.80;84.20;;;;;;5058623;28;20046;-69
2022/08/24 06:07:10;;;;;;;6.95;3.60;;;19.80;84.10;;;;;;5057682;28;20021;-68
2022/08/24 06:09:37;;;;;;;4.60;3.20;;;19.80;84.10;;;;;;5051362;28;20052;-70
2022/08/24 06:12:03;;;;;;;6.47;3.40;;;19.80;84.00;;;;;;5051958;28;20021;-68
2022/08/24 06:14:28;;;;;;;7.70;4.65;;;19.90;84.00;;;;;;5054547;28;20055;-68
2022/08/24 06:16:54;;;;;;;8.57;4.32;;;19.90;84.00;;;;;;5050542;28;20041;-68
2022/08/24 06:19:20;;;;;;;9.52;4.35;;;20.00;83.90;;;;;;5059493;28;20028;-68
2022/08/24 06:21:48;;;;;;;10.07;4.30;;;20.00;83.80;;;;;;5059235;28;20278;-68
2022/08/24 06:24:14;;;;;;;7.22;4.28;;;20.10;83.80;;;;;;5057571;28;20017;-68
2022/08/24 06:29:26;;;;;;;9.40;4.75;;;20.20;83.80;;;;;;5062835;28;20503;-69
2022/08/24 06:31:51;;;;;;;9.18;4.95;;;20.20;83.90;;;;;;5052034;28;20107;-68
2022/08/24 06:34:18;;;;;;;6.47;4.43;;;20.30;83.80;;;;;;5057617;28;20053;-69
2022/08/24 06:36:44;;;;;;;6.43;4.20;;;20.30;83.80;;;;;;5057623;28;20120;-71
2022/08/24 06:39:10;;;;;;;5.50;4.43;;;20.40;83.80;;;;;;5057931;28;20029;-71
2022/08/24 06:41:37;;;;;;;7.07;4.45;;;20.50;83.80;;;;;;5057793;28;20021;-71
2022/08/24 06:44:03;;;;;;;7.95;5.30;;;20.50;83.70;;;;;;5056647;28;20025;-71
2022/08/24 06:46:29;;;;;;;10.70;4.65;;;20.60;83.70;;;;;;5056640;28;20087;-71
2022/08/24 06:48:55;;;;;;;6.13;4.50;;;20.60;83.70;;;;;;5059315;28;20259;-72
2022/08/24 06:51:21;;;;;;;8.13;4.80;;;20.70;83.70;;;;;;5058593;28;20056;-71
2022/08/24 06:53:49;;;;;;;12.13;4.68;;;20.80;83.70;;;;;;5058500;28;20079;-68
2022/08/24 06:56:15;;;;;;;9.25;5.25;;;20.80;83.70;;;;;;5065162;28;20036;-69
2022/08/24 06:58:41;;;;;;;8.07;4.97;;;20.80;83.50;;;;;;5059279;28;20031;-68
2022/08/24 07:01:13;;;;;;;6.32;4.38;;;20.90;83.40;;;;;;5057413;28;20107;-68
2022/08/24 07:03:39;;;;;;;12.70;5.15;;;20.90;83.30;;;;;;5057739;28;20029;-68
2022/08/24 07:06:06;;;;;;;8.35;4.65;;;21.00;83.30;;;;;;5069511;28;20167;-68
2022/08/24 07:08:31;;;;;;;6.95;4.70;;;21.00;83.20;;;;;;5059982;28;20040;-68
2022/08/24 07:10:57;;;;;;;7.78;4.38;;;21.10;83.00;;;;;;5052386;28;20025;-68
2022/08/24 07:13:24;;;;;;;7.07;4.53;;;21.20;83.10;;;;;;5051762;28;20025;-69
2022/08/24 07:15:51;;;;;;;6.82;4.70;;;21.20;83.10;;;;;;5052235;28;20045;-68
2022/08/24 07:18:19;;;;;;;6.55;4.65;;;21.30;83.10;;;;;;5059641;28;20503;-68
2022/08/24 07:20:45;;;;;;;9.32;4.30;;;21.30;83.00;;;;;;5058286;28;20033;-68
2022/08/24 07:23:13;;;;;;;10.85;4.88;;;21.30;82.90;;;;;;5058233;28;20108;-68
2022/08/24 07:25:39;;;;;;;5.57;3.80;;;21.40;82.80;;;;;;5056388;28;20028;-68
2022/08/24 07:28:05;;;;;;;5.18;3.95;;;21.40;82.90;;;;;;5060083;28;20032;-68
2022/08/24 07:30:31;;;;;;;5.85;4.60;;;21.50;82.90;;;;;;5059423;28;20020;-68
2022/08/24 07:32:57;;;;;;;7.95;4.32;;;21.60;82.70;;;;;;5053953;28;20040;-68
2022/08/24 07:35:25;;;;;;;9.20;4.15;;;21.60;82.60;;;;;;5062997;28;20119;-68
2022/08/24 07:37:51;;;;;;;6.80;4.15;;;21.70;82.30;;;;;;5058682;28;20305;-68
2022/08/24 07:40:17;;;;;;;7.80;4.30;;;21.70;82.00;;;;;;5061009;28;20017;-68
2022/08/24 07:42:47;;;;;;;7.82;4.45;;;21.70;81.90;;;;;;5061661;28;20167;-68
2022/08/24 07:45:13;;;;;;;6.78;5.03;;;21.80;81.80;;;;;;5051319;28;20219;-68
2022/08/24 07:47:39;;;;;;;6.60;4.95;;;21.80;81.60;;;;;;5059229;28;20021;-68
2022/08/24 07:50:05;;;;;;;12.52;4.85;;;21.80;81.50;;;;;;5064203;28;20032;-69
2022/08/24 07:52:31;;;;;;;7.63;5.15;;;21.90;81.40;;;;;;5060371;28;20020;-68
2022/08/24 07:54:57;;;;;;;10.85;4.63;;;21.90;81.20;;;;;;5060579;28;20025;-69
2022/08/24 07:57:23;;;;;;;12.32;4.68;;;22.00;81.00;;;;;;5062320;28;20037;-68
2022/08/24 08:13:33;;;;;;;10.20;5.05;;;22.20;80.50;;;;;;1490351;26;20044;-64
2022/08/24 08:15:59;;;;;;;7.88;5.07;;;22.20;80.40;;;;;;5070500;28;20032;-64
2022/08/24 08:18:27;;;;;;;13.90;5.68;;;22.20;80.40;;;;;;5061413;28;20055;-64
2022/08/24 08:20:53;;;;;;;8.57;4.90;;;22.20;80.30;;;;;;5065138;28;20029;-63
2022/08/24 08:26:05;;;;;;;6.35;4.55;;;22.30;80.10;;;;;;5074279;28;20088;-64
2022/08/24 08:28:32;;;;;;;8.75;5.43;;;22.30;80.10;;;;;;5072674;28;20056;-64
2022/08/24 08:31:07;;;;;;;7.38;4.28;;;22.40;80.20;;;;;;5072223;28;20063;-64
2022/08/24 08:33:34;;;;;;;11.95;4.20;;;22.40;80.40;;;;;;5073445;28;20035;-64
2022/08/24 08:36:23;;;;;;;7.82;4.20;;;22.40;80.40;;;;;;5073706;28;20068;-63
2022/08/24 08:38:50;;;;;;;9.65;3.97;;;22.40;80.40;;;;;;4992808;28;20109;-63
2022/08/24 08:41:18;;;;;;;5.97;4.60;;;22.50;80.60;;;;;;4989864;28;20038;-64
2022/08/24 08:43:47;;;;;;;4.85;4.07;;;22.50;80.50;;;;;;4976441;28;20113;-64
2022/08/24 08:46:48;;;;;;;9.60;4.40;;;22.50;80.50;;;;;;4988746;28;20126;-64
2022/08/24 08:49:41;;;;;;;8.55;3.67;;;22.50;80.50;;;;;;4957400;28;20039;-64
2022/08/24 08:52:10;;;;;;;6.97;4.93;;;22.60;80.50;;;;;;4981833;28;20086;-64
2022/08/24 08:55:14;;;;;;;4.32;3.38;;;22.60;80.30;;;;;;4991242;28;20396;-64
2022/08/24 08:57:50;;;;;;;5.22;3.70;;;22.60;80.30;;;;;;4987506;28;20133;-64
2022/08/24 09:00:23;;;;;;;13.57;5.32;;;22.70;80.20;;;;;;4962426;28;20065;-63
2022/08/24 09:03:11;;;;;;;7.97;4.55;;;22.70;80.10;;;;;;4989835;28;20053;-63
2022/08/24 09:05:56;;;;;;;7.93;4.57;;;22.70;80.10;;;;;;4974730;28;20055;-64
2022/08/24 09:08:24;;;;;;;6.90;4.97;;;22.70;80.00;;;;;;4984504;28;20034;-63
2022/08/24 09:10:55;;;;;;;7.88;4.05;;;22.80;80.00;;;;;;4971183;28;20031;-64
2022/08/24 09:14:03;;;;;;;6.97;3.80;;;22.80;80.00;;;;;;4982124;28;20126;-64
2022/08/24 09:16:54;;;;;;;5.97;3.35;;;22.80;79.90;;;;;;4972567;28;20057;-63
2022/08/24 09:19:55;;;;;;;8.27;4.50;;;22.80;79.90;;;;;;4995467;28;20135;-64
2022/08/24 09:22:21;;;;;;;10.38;4.38;;;22.80;80.00;;;;;;5002131;28;20034;-64
2022/08/24 09:24:53;;;;;;;13.20;3.83;;;22.90;80.00;;;;;;5004543;28;20037;-64
2022/08/24 09:27:27;;;;;;;8.75;4.28;;;22.80;79.90;;;;;;5005524;28;20038;-64
2022/08/24 09:40:53;;;;;;;5.43;3.35;;;22.90;79.90;;;;;;5013103;28;20021;-63
2022/08/24 09:43:42;;;;;;;9.05;3.80;;;22.90;79.90;;;;;;5006292;28;20034;-64
2022/08/24 09:46:29;;;;;;;6.10;3.40;;;22.90;80.00;;;;;;4990881;28;20039;-64
2022/08/24 09:49:03;;;;;;;17.70;4.20;;;22.80;80.00;;;;;;5003358;28;20116;-64
2022/08/24 09:51:49;;;;;;;8.05;3.42;;;22.80;80.00;;;;;;4990546;28;20031;-64
2022/08/24 09:54:42;;;;;;;6.60;3.60;;;22.80;80.00;;;;;;5049312;28;20029;-64
2022/08/24 09:57:28;;;;;;;4.10;2.90;;;22.80;80.20;;;;;;5065964;28;20035;-64
2022/08/24 10:00:11;;;;;;;3.88;3.08;;;22.70;80.20;;;;;;5068394;28;20473;-64
2022/08/24 10:03:01;;;;;;;4.25;2.60;;;22.70;80.20;;;;;;5063537;28;20055;-63
2022/08/24 10:05:49;;;;;;;5.53;3.03;;;22.70;80.30;;;;;;5050551;28;20016;-62
2022/08/24 10:08:41;;;;;;;2.92;2.40;;;22.60;80.40;;;;;;5078517;28;20504;-65
2022/08/24 10:11:16;;;;;;;8.18;2.78;;;22.70;79.90;;;;;;5046587;28;20390;-65
2022/08/24 10:13:45;;;;;;;3.25;2.67;;;22.60;79.70;;;;;;5071320;28;20020;-64
2022/08/24 10:16:32;;;;;;;9.82;2.75;;;22.60;80.00;;;;;;5074448;28;20063;-64
2022/08/24 10:19:26;;;;;;;4.78;2.40;;;22.50;80.10;;;;;;5070764;28;20427;-65
2022/08/24 10:22:19;;;;;;;4.43;2.42;;;22.50;80.40;;;;;;5072345;28;20035;-64
2022/08/24 10:25:15;;;;;;;4.78;2.50;;;22.50;80.50;;;;;;5076518;28;20034;-64
2022/08/24 10:28:02;;;;;;;2.88;2.50;;;22.40;80.70;;;;;;5061269;28;20054;-64
2022/08/24 10:30:31;;;;;;;3.58;2.35;;;22.40;81.00;;;;;;5049358;28;20060;-64
2022/08/24 10:33:21;;;;;;;4.28;1.83;;;22.30;81.10;;;;;;5041897;28;20546;-63
2022/08/24 10:36:23;;;;;;;6.28;2.72;;;22.40;81.10;;;;;;5069621;28;20382;-64
2022/08/24 10:39:42;;;;;;;10.60;2.70;;;22.40;80.60;;;;;;5050177;28;20032;-64
2022/08/24 10:46:17;;;;;;;5.20;2.25;;;22.30;80.40;;;;;;5061185;28;20043;-64
2022/08/24 10:49:23;;;;;;;10.02;2.47;;;22.20;80.70;;;;;;5042722;28;20040;-65
2022/08/24 10:52:29;;;;;;;2.55;1.92;;;22.20;81.00;;;;;;5061831;28;20044;-64
2022/08/24 10:55:18;;;;;;;2.85;2.38;;;22.20;81.20;;;;;;5032294;28;20048;-64
2022/08/24 10:58:21;;;;;;;3.42;2.28;;;22.20;81.40;;;;;;5066415;28;20032;-64
2022/08/24 11:00:57;;;;;;;7.85;2.05;;;22.10;81.60;;;;;;5073036;28;20028;-64
2022/08/24 11:03:49;;;;;;;4.43;2.38;;;22.10;81.70;;;;;;5045541;28;20024;-64
2022/08/24 11:06:39;;;;;;;3.03;2.03;;;22.10;81.70;;;;;;5074114;28;20442;-64
2022/08/24 11:09:10;;;;;;;;;;;22.10;81.80;;;;;;5050002;28;20501;-64
2022/08/24 11:11:37;;;;;;;4.68;2.00;;;22.10;81.80;;;;;;5063344;28;19954;-62
2022/08/24 11:14:13;;;;;;;2.85;2.40;;;22.00;81.80;;;;;;5075445;28;20594;-62
2022/08/24 11:16:45;;;;;;;5.03;2.20;;;22.00;82.00;;;;;;5080852;28;20051;-62
2022/08/24 11:19:33;;;;;;;2.45;1.88;;;22.00;82.00;;;;;;5070833;28;20024;-62
2022/08/24 11:22:20;;;;;;;6.20;2.47;;;22.00;82.00;;;;;;5048597;28;20033;-65
2022/08/24 11:24:50;;;;;;;8.35;2.47;;;22.00;82.00;;;;;;5066370;28;20446;-64
2022/08/24 11:27:16;;;;;;;6.93;2.20;;;21.90;82.10;;;;;;5081641;28;20020;-64
2022/08/24 11:29:50;;;;;;;3.28;2.00;;;21.90;82.10;;;;;;5084576;28;20358;-64
2022/08/24 11:32:39;;;;;;;3.72;2.58;;;21.90;82.10;;;;;;5085170;28;20020;-64
2022/08/24 11:35:28;;;;;;;2.47;2.28;;;21.90;82.20;;;;;;5056936;28;20087;-64
2022/08/24 11:38:04;;;;;;;4.97;2.47;;;21.80;82.20;;;;;;5042148;28;20046;-64
2022/08/24 11:40:36;;;;;;;3.47;2.20;;;21.80;82.10;;;;;;5083113;28;20051;-64
2022/08/24 11:43:37;;;;;;;4.25;2.30;;;21.80;82.20;;;;;;5062609;28;20473;-64
2022/08/24 11:46:10;;;;;;;3.90;2.35;;;21.80;82.30;;;;;;5043281;28;20300;-64
2022/08/24 11:48:58;;;;;;;4.93;2.78;;;21.80;82.20;;;;;;5055028;28;20028;-64
2022/08/24 11:51:35;;;;;;;4.93;2.22;;;21.80;82.30;;;;;;5080704;28;20559;-64
2022/08/24 11:54:24;;;;;;;4.35;2.13;;;21.80;82.90;;;;;;5084249;28;20032;-64
2022/08/24 11:57:02;;;;;;;5.18;1.88;;;21.80;82.20;;;;;;5019503;28;20408;-65
2022/08/24 11:59:47;;;;;;;4.88;2.30;;;21.80;82.20;;;;;;5083827;28;20063;-65
2022/08/24 12:02:33;;;;;;;2.95;2.10;;;21.80;82.20;;;;;;5081348;28;20024;-64
2022/08/24 12:05:22;;;;;;;3.15;2.22;;;21.80;82.20;;;;;;5091526;28;20032;-64
2022/08/24 12:07:54;;;;;;;3.60;2.17;;;21.80;82.10;;;;;;5080756;28;20028;-64
2022/08/24 12:10:24;;;;;;;2.97;2.05;;;21.80;82.10;;;;;;5088818;28;20048;-64
2022/08/24 12:13:30;;;;;;;3.78;2.50;;;21.80;82.00;;;;;;5067718;28;20028;-64
2022/08/24 12:16:02;;;;;;;3.03;2.15;;;21.80;82.00;;;;;;5050615;28;20032;-64
2022/08/24 12:18:43;;;;;;;3.70;2.53;;;21.80;82.00;;;;;;5076781;28;20036;-64
2022/08/24 12:21:12;;;;;;;4.22;2.25;;;21.80;82.00;;;;;;5083340;28;20034;-64
2022/08/24 12:23:46;;;;;;;7.25;2.42;;;21.80;82.00;;;;;;5082796;28;20020;-64
2022/08/24 12:26:45;;;;;;;4.45;2.35;;;21.80;82.10;;;;;;5079977;28;20024;-64
2022/08/24 12:29:22;;;;;;;4.57;2.47;;;21.80;82.10;;;;;;5030501;28;20560;-64
2022/08/24 12:31:56;;;;;;;3.63;2.35;;;21.80;82.10;;;;;;5083354;28;20473;-64
2022/08/24 12:34:54;;;;;;;3.00;2.55;;;21.80;82.20;;;;;;5075308;28;20025;-64
2022/08/24 12:37:59;;;;;;;3.83;2.63;;;21.80;82.20;;;;;;5067239;28;20039;-64
2022/08/24 12:40:33;;;;;;;4.85;2.10;;;21.70;82.20;;;;;;5075532;28;20027;-64
2022/08/24 12:43:07;;;;;;;6.45;2.63;;;21.80;82.30;;;;;;5072446;28;20017;-64
2022/08/24 12:45:34;;;;;;;3.92;2.45;;;21.80;82.30;;;;;;5087624;28;20031;-64
2022/08/24 12:48:24;;;;;;;9.15;3.08;;;21.80;82.30;;;;;;5079689;28;20301;-65
2022/08/24 12:51:04;;;;;;;6.03;2.47;;;21.80;82.40;;;;;;5082187;28;20124;-64
2022/08/24 12:53:42;;;;;;;4.47;2.50;;;21.80;82.50;;;;;;5082983;28;20019;-64
2022/08/24 12:56:29;;;;;;;4.13;2.70;;;21.80;82.50;;;;;;5061066;28;20036;-64
2022/08/24 12:59:18;;;;;;;7.57;3.15;;;21.70;82.50;;;;;;5065265;28;20050;-64
2022/08/24 13:02:05;;;;;;;3.72;2.67;;;21.70;82.60;;;;;;5081769;28;20028;-64
2022/08/24 13:04:34;;;;;;;5.07;2.90;;;21.80;82.70;;;;;;5057835;28;20111;-64
2022/08/24 13:07:18;;;;;;;7.88;2.58;;;21.80;82.70;;;;;;5066573;28;20078;-64
2022/08/24 13:09:58;;;;;;;3.53;2.50;;;21.80;82.90;;;;;;5063815;28;20012;-64
2022/08/24 13:12:45;;;;;;;6.82;2.80;;;21.70;82.80;;;;;;5079963;28;20017;-64
2022/08/24 13:15:26;;;;;;;4.18;2.65;;;21.70;82.90;;;;;;5069139;28;20497;-64
2022/08/24 13:17:52;;;;;;;5.10;2.78;;;21.80;83.10;;;;;;5074651;28;20056;-64
2022/08/24 13:20:42;;;;;;;5.47;2.80;;;21.70;83.10;;;;;;5078865;28;20522;-64
2022/08/24 13:23:10;;;;;;;3.95;2.80;;;21.70;83.20;;;;;;5042640;28;20027;-64
2022/08/24 13:25:58;;;;;;;3.33;2.75;;;21.70;83.20;;;;;;5081332;28;20533;-64
2022/08/24 13:28:24;;;;;;;3.67;2.80;;;21.70;83.30;;;;;;5061376;28;20086;-64
2022/08/24 13:31:02;;;;;;;4.35;3.08;;;21.70;83.30;;;;;;5080891;28;20481;-64
2022/08/24 13:33:40;;;;;;;10.05;2.78;;;21.70;83.30;;;;;;5081004;28;21839;-65
2022/08/24 13:36:30;;;;;;;4.88;2.72;;;21.70;83.40;;;;;;5065950;28;20023;-64
2022/08/24 13:39:11;;;;;;;3.42;2.70;;;21.70;83.50;;;;;;5080435;28;20020;-65
2022/08/24 13:41:49;;;;;;;5.53;2.72;;;21.70;83.50;;;;;;5079188;28;20166;-64
2022/08/24 13:44:59;;;;;;;2.88;2.58;;;21.70;83.60;;;;;;5054507;28;20062;-64
2022/08/24 13:47:47;;;;;;;3.30;2.45;;;21.70;83.70;;;;;;4974610;28;20030;-64
2022/08/24 13:50:33;;;;;;;5.68;2.75;;;21.70;83.70;;;;;;5002179;28;20033;-64